Αρχική σελίδα
METAR-TAF:

METAR-TAF

Αεροδρόμια :

El Oued, Αλγερία

γεωγραφικό πλάτος: 33-30-47N, γεωγραφικό μήκος: 006-46-57E, υψόμετρο: 62 μ

Παρών καιρός

Η αναφορά έγινε 10 ώρες και 41 λεπτά πριν, στις 07:58 UTC
Άνεμος 2 kt από ΝΔ
Θερμοκρασία 13°C
Υγρασία 88%
Πίεση 1012 hPa
Ορατότητα: 3500 μ
Αχλής

METAR: DAUO 180758Z 22002KT 3500 BR NSC 13/11 Q1012

Χρόνος: 19:39 (18:39 UTC)

Πρόγνωση Καιρού

Η αναφορά έγινε 1 ώρα και 39 λεπτά πριν, στις 17:00 UTC
Η πρόγνωση ισχύει από τις 18 στις 18 UTC έως τις 19 στις 03 UTC
Άνεμος 6 kt από Ν/NA
Ορατότητα 10 χλμ και άνω
Λίγα νέφη σε ύψος 4000 πόδια
Διάσπαρτα νέφη σε ύψος 20000 πόδια

TAF: DAUO 181700Z 1818/1903 16006KT 9999 FEW040 SCT200

Μετεωρολογικές αναφορές και προγνώσεις για περισσότερα από 4000 αεροδρόμια (δελτία METAR και TAF).

Οι διαθέσιμοι σταθμοί απεικονίζονται στο χάρτη με κίτρινες και κόκκινες κουκκίδες.

Μετακινήστε το ποντίκι πάνω από τις κουκκίδες για να δείτε το όνομα του σταθμού.

Στη συνέχεια, κάντε κλικ για να δείτε τις μετεωρολογικές αναφορές και τις προγνώσεις καιρού.

Για να αλλάξετε το χάρτη: κάντε κλικ στα πράσινα κουμπιά με τον μαύρο σταυρό για να ζουμάρετε, στο πράσινο κουμπί με την παύλα για να αφαιρέσετε το ζουμ ή στα πράσινα βέλη για να αντιπαραβάλλετε χάρτες.


METAR-TAF: